Devine, Texas
Current Conditions -  °F | °C
As of 4:35 PM on Sunday 23 Nov 2014 (Local Time) from KCVB Reporting Station
Clear Clear  
Wind Chill: 80°   Ceiling: Unl
Heat Index: 80°   Visibility: 10mi
Dew Point: 38°   Wind: 10mph
Humidity: 23%   Direction: 270°W
Pressure: 29.61"   Gusts: NA
Location:  29.14°N, 98.91°W
Report Text: KCVB 232235Z AUTO 27009KT 10SM CLR 27/04 A2961 RMK AO2 T02650036
Loading
Personal Weather Stations






























Interactive Weather Map New forecast layout! Learn more

10-Day Weather Forecast

Advertisements
Track Severe Weather on mobile